sensor_id;sensor_type;location;lat;lon;timestamp;pressure;altitude;pressure_sealevel;temperature;humidity
75747;BME280;70632;52.232;21.038;2023-09-07T00:01:50;101130.69;;;39.87;20.97
75747;BME280;70632;52.232;21.038;2023-09-07T00:04:21;101131.41;;;39.75;21.77
75747;BME280;70632;52.232;21.038;2023-09-07T00:06:49;101134.56;;;39.86;21.11
75747;BME280;70632;52.232;21.038;2023-09-07T00:09:18;101132.09;;;39.25;21.62
75747;BME280;70632;52.232;21.038;2023-09-07T00:11:44;101134.72;;;39.07;22.71
75747;BME280;70632;52.232;21.038;2023-09-07T00:14:11;101135.53;;;38.61;23.30
75747;BME280;70632;52.232;21.038;2023-09-07T00:16:36;101141.09;;;37.87;25.15
75747;BME280;70632;52.232;21.038;2023-09-07T00:19:04;101136.22;;;37.55;26.42
75747;BME280;70632;52.232;21.038;2023-09-07T00:21:30;101136.53;;;36.62;26.89
75747;BME280;70632;52.232;21.038;2023-09-07T00:23:56;101129.94;;;36.48;27.08
75747;BME280;70632;52.232;21.038;2023-09-07T00:26:22;101136.66;;;36.39;27.13
75747;BME280;70632;52.232;21.038;2023-09-07T00:28:47;101144.66;;;36.28;28.03
75747;BME280;70632;52.232;21.038;2023-09-07T00:31:13;101135.47;;;36.63;27.53
75747;BME280;70632;52.232;21.038;2023-09-07T00:33:39;101135.97;;;37.50;26.65
75747;BME280;70632;52.232;21.038;2023-09-07T00:36:05;101136.56;;;37.86;26.37
75747;BME280;70632;52.232;21.038;2023-09-07T00:38:31;101138.44;;;37.38;26.79
75747;BME280;70632;52.232;21.038;2023-09-07T00:40:56;101144.56;;;36.57;28.09
75747;BME280;70632;52.232;21.038;2023-09-07T00:43:22;101135.69;;;36.26;28.00
75747;BME280;70632;52.232;21.038;2023-09-07T00:45:48;101136.78;;;35.95;28.87
75747;BME280;70632;52.232;21.038;2023-09-07T20:25:18;101158.47;;;41.20;20.42
75747;BME280;70632;52.232;21.038;2023-09-07T20:27:46;101160.00;;;40.53;21.36
75747;BME280;70632;52.232;21.038;2023-09-07T20:30:12;101155.00;;;40.69;20.55
75747;BME280;70632;52.232;21.038;2023-09-07T20:32:39;101162.56;;;40.61;20.95
75747;BME280;70632;52.232;21.038;2023-09-07T20:35:05;101156.25;;;41.04;20.20
75747;BME280;70632;52.232;21.038;2023-09-07T20:37:31;101164.41;;;40.99;20.75
75747;BME280;70632;52.232;21.038;2023-09-07T20:39:56;101169.19;;;41.23;20.03
75747;BME280;70632;52.232;21.038;2023-09-07T20:42:22;101162.25;;;41.50;20.55
75747;BME280;70632;52.232;21.038;2023-09-07T20:44:48;101171.59;;;41.44;20.02
75747;BME280;70632;52.232;21.038;2023-09-07T20:47:15;101160.91;;;41.10;20.29
75747;BME280;70632;52.232;21.038;2023-09-07T20:49:42;101163.44;;;40.24;21.22
75747;BME280;70632;52.232;21.038;2023-09-07T20:52:07;101166.47;;;40.60;20.73
75747;BME280;70632;52.232;21.038;2023-09-07T20:54:33;101156.34;;;40.53;20.93
75747;BME280;70632;52.232;21.038;2023-09-07T20:56:59;101159.31;;;40.89;21.13
75747;BME280;70632;52.232;21.038;2023-09-07T20:59:28;101155.63;;;40.95;20.97
75747;BME280;70632;52.232;21.038;2023-09-07T21:01:54;101158.72;;;40.18;21.25
75747;BME280;70632;52.232;21.038;2023-09-07T21:04:20;101165.78;;;40.27;21.34
75747;BME280;70632;52.232;21.038;2023-09-07T21:06:47;101165.03;;;39.94;22.12
75747;BME280;70632;52.232;21.038;2023-09-07T21:09:13;101159.94;;;40.35;21.87
75747;BME280;70632;52.232;21.038;2023-09-07T21:11:43;101151.59;;;40.22;21.59
75747;BME280;70632;52.232;21.038;2023-09-07T21:14:09;101159.38;;;40.20;21.22
75747;BME280;70632;52.232;21.038;2023-09-07T21:16:36;101158.66;;;39.60;22.29
75747;BME280;70632;52.232;21.038;2023-09-07T21:19:04;101158.84;;;40.36;20.88
75747;BME280;70632;52.232;21.038;2023-09-07T21:21:29;101159.31;;;39.75;22.14
75747;BME280;70632;52.232;21.038;2023-09-07T21:23:55;101158.31;;;39.37;22.40
75747;BME280;70632;52.232;21.038;2023-09-07T21:26:21;101158.53;;;38.96;22.61
75747;BME280;70632;52.232;21.038;2023-09-07T21:28:47;101165.59;;;39.45;22.04
75747;BME280;70632;52.232;21.038;2023-09-07T21:31:12;101150.91;;;39.69;21.80
75747;BME280;70632;52.232;21.038;2023-09-07T21:33:39;101157.81;;;39.66;22.03
75747;BME280;70632;52.232;21.038;2023-09-07T21:36:06;101158.50;;;38.63;23.20
75747;BME280;70632;52.232;21.038;2023-09-07T21:38:33;101158.69;;;39.54;22.57
75747;BME280;70632;52.232;21.038;2023-09-07T21:40:58;101163.47;;;39.27;22.29
75747;BME280;70632;52.232;21.038;2023-09-07T21:43:24;101156.81;;;38.89;22.87
75747;BME280;70632;52.232;21.038;2023-09-07T21:45:51;101154.81;;;38.56;23.27
75747;BME280;70632;52.232;21.038;2023-09-07T21:48:17;101165.53;;;37.51;24.73
75747;BME280;70632;52.232;21.038;2023-09-07T21:50:42;101168.13;;;38.54;23.22
75747;BME280;70632;52.232;21.038;2023-09-07T21:53:09;101162.19;;;38.90;23.00
75747;BME280;70632;52.232;21.038;2023-09-07T21:55:34;101168.13;;;38.48;23.36
75747;BME280;70632;52.232;21.038;2023-09-07T21:58:00;101172.44;;;38.70;23.40
75747;BME280;70632;52.232;21.038;2023-09-07T22:00:26;101164.25;;;39.60;22.30
75747;BME280;70632;52.232;21.038;2023-09-07T22:02:52;101165.59;;;39.25;22.97
75747;BME280;70632;52.232;21.038;2023-09-07T22:05:17;101168.44;;;40.02;22.04
75747;BME280;70632;52.232;21.038;2023-09-07T22:07:43;101171.13;;;39.84;21.84
75747;BME280;70632;52.232;21.038;2023-09-07T22:10:12;101173.25;;;40.33;21.88
75747;BME280;70632;52.232;21.038;2023-09-07T22:12:39;101177.59;;;39.58;22.96
75747;BME280;70632;52.232;21.038;2023-09-07T22:15:05;101170.06;;;39.52;22.41
75747;BME280;70632;52.232;21.038;2023-09-07T22:17:31;101177.94;;;39.95;22.01
75747;BME280;70632;52.232;21.038;2023-09-07T22:19:57;101169.31;;;40.03;21.77
75747;BME280;70632;52.232;21.038;2023-09-07T22:22:23;101171.63;;;39.35;22.48
75747;BME280;70632;52.232;21.038;2023-09-07T22:24:55;101169.72;;;39.36;22.92
75747;BME280;70632;52.232;21.038;2023-09-07T22:27:21;101167.53;;;39.24;22.56
75747;BME280;70632;52.232;21.038;2023-09-07T22:29:48;101164.28;;;38.68;23.23
75747;BME280;70632;52.232;21.038;2023-09-07T22:32:14;101171.91;;;38.40;23.96
75747;BME280;70632;52.232;21.038;2023-09-07T22:34:40;101156.56;;;38.77;23.45
75747;BME280;70632;52.232;21.038;2023-09-07T22:37:05;101157.41;;;38.51;23.63
75747;BME280;70632;52.232;21.038;2023-09-07T22:39:31;101164.94;;;38.64;23.94
75747;BME280;70632;52.232;21.038;2023-09-07T22:41:57;101160.31;;;38.36;24.07
75747;BME280;70632;52.232;21.038;2023-09-07T22:44:22;101160.75;;;38.33;24.04
75747;BME280;70632;52.232;21.038;2023-09-07T22:46:48;101166.50;;;37.71;24.56
75747;BME280;70632;52.232;21.038;2023-09-07T22:49:14;101164.94;;;38.64;23.53
75747;BME280;70632;52.232;21.038;2023-09-07T22:51:40;101168.50;;;38.38;23.88
75747;BME280;70632;52.232;21.038;2023-09-07T22:54:06;101160.22;;;38.71;23.29
75747;BME280;70632;52.232;21.038;2023-09-07T22:56:31;101163.88;;;38.84;23.43
75747;BME280;70632;52.232;21.038;2023-09-07T22:58:57;101167.31;;;38.80;23.30
75747;BME280;70632;52.232;21.038;2023-09-07T23:01:24;101164.06;;;38.76;23.36
75747;BME280;70632;52.232;21.038;2023-09-07T23:03:49;101165.19;;;39.28;22.79
75747;BME280;70632;52.232;21.038;2023-09-07T23:06:15;101172.88;;;36.88;25.62
75747;BME280;70632;52.232;21.038;2023-09-07T23:08:41;101168.25;;;37.79;25.03
75747;BME280;70632;52.232;21.038;2023-09-07T23:11:08;101170.78;;;39.02;23.56
75747;BME280;70632;52.232;21.038;2023-09-07T23:13:34;101166.47;;;38.93;23.27
75747;BME280;70632;52.232;21.038;2023-09-07T23:16:01;101168.19;;;39.40;22.87
75747;BME280;70632;52.232;21.038;2023-09-07T23:18:27;101171.13;;;38.72;23.55
75747;BME280;70632;52.232;21.038;2023-09-07T23:20:53;101169.88;;;38.81;23.29
75747;BME280;70632;52.232;21.038;2023-09-07T23:23:18;101169.25;;;38.93;23.44
75747;BME280;70632;52.232;21.038;2023-09-07T23:25:44;101178.72;;;38.98;23.54
75747;BME280;70632;52.232;21.038;2023-09-07T23:28:10;101175.03;;;39.17;23.52
75747;BME280;70632;52.232;21.038;2023-09-07T23:30:36;101173.53;;;38.82;23.47
75747;BME280;70632;52.232;21.038;2023-09-07T23:33:03;101177.16;;;38.69;23.86
75747;BME280;70632;52.232;21.038;2023-09-07T23:35:31;101173.56;;;39.28;23.01
75747;BME280;70632;52.232;21.038;2023-09-07T23:37:57;101174.63;;;39.27;22.85
75747;BME280;70632;52.232;21.038;2023-09-07T23:40:23;101180.53;;;38.45;23.87
75747;BME280;70632;52.232;21.038;2023-09-07T23:42:48;101182.56;;;38.17;23.96
75747;BME280;70632;52.232;21.038;2023-09-07T23:45:14;101174.22;;;38.91;23.26
75747;BME280;70632;52.232;21.038;2023-09-07T23:47:40;101173.31;;;38.83;22.97
75747;BME280;70632;52.232;21.038;2023-09-07T23:50:06;101176.34;;;39.02;22.70
75747;BME280;70632;52.232;21.038;2023-09-07T23:52:32;101168.44;;;38.12;24.16
75747;BME280;70632;52.232;21.038;2023-09-07T23:54:59;101171.34;;;38.51;23.76
75747;BME280;70632;52.232;21.038;2023-09-07T23:57:26;101172.25;;;39.37;22.83
75747;BME280;70632;52.232;21.038;2023-09-07T23:59:53;101171.63;;;39.35;22.95
